Terminal Aerodrome Forecast
Issued by NWS Cleveland, OH

Home | Current Version | Previous Version | Graphics & Text | Print | Product List | Glossary Off
Versions: 1 2 3 4 5 6 7 8 9 10 11 12 13 14 15 16 17 18 19 20 21 22 23

731
FTUS41 KCLE 110528
TAFERI
TAF
KERI 110528Z 1106/1206 19010KT P6SM OVC040
     FM111100 20007KT 2SM -SN OVC025
     FM111400 17010KT 1SM -SN OVC015
     FM111900 16012G20KT 3/4SM -SN OVC008
     FM120100 17015G25KT 2SM -SN OVC004=

USA.gov is the U.S. government's official web portal to all federal, state and local government web resources and services.